Time;durP1;ratioP1;P1;durP2;ratioP2;P2;SDS_P1;SDS_P2;PMS_P1;PMS_P2;Temp;Humidity;BMP_temperature;BMP_pressure;BME280_temperature;BME280_humidity;BME280_pressure;Samples;Min_cycle;Max_cycle;Signal;HPM_P1;HPM_P2
2021/07/21 00:02:19;;;;;;;22.02;5.45;;;15.60;99.90;;;;;;5093341;28;20861;-64
2021/07/21 00:04:45;;;;;;;25.58;5.43;;;15.60;99.90;;;;;;5093610;28;20380;-64
2021/07/21 00:07:15;;;;;;;23.10;5.32;;;15.60;99.90;;;;;;5093614;28;20990;-63
2021/07/21 00:09:41;;;;;;;22.07;5.20;;;15.60;99.90;;;;;;5091952;28;20380;-64
2021/07/21 00:14:52;;;;;;;17.35;5.00;;;15.60;99.90;;;;;;5100234;28;20870;-64
2021/07/21 00:17:27;;;;;;;24.45;5.15;;;15.60;99.90;;;;;;5093193;28;20765;-64
2021/07/21 00:20:06;;;;;;;21.70;5.57;;;15.50;99.90;;;;;;5093320;28;20376;-64
2021/07/21 00:22:37;;;;;;;23.10;5.40;;;15.50;99.90;;;;;;5092380;28;20484;-63
2021/07/21 00:25:05;;;;;;;21.52;5.50;;;15.50;99.90;;;;;;5093101;28;20678;-64
2021/07/21 00:27:31;;;;;;;27.40;5.80;;;15.40;99.90;;;;;;5093087;28;20391;-64
2021/07/21 00:29:57;;;;;;;21.45;5.22;;;15.40;99.90;;;;;;5093020;28;20434;-65
2021/07/21 00:32:23;;;;;;;23.10;6.00;;;15.40;99.90;;;;;;5093155;28;20753;-64
2021/07/21 00:34:49;;;;;;;24.45;5.80;;;15.30;99.90;;;;;;5093090;28;20372;-64
2021/07/21 00:37:15;;;;;;;24.42;6.05;;;15.30;99.90;;;;;;5092638;28;20412;-64
2021/07/21 00:39:41;;;;;;;21.98;5.70;;;15.30;99.90;;;;;;5091737;28;20372;-64
2021/07/21 00:42:07;;;;;;;21.67;6.20;;;15.20;99.90;;;;;;5092506;28;20396;-64
2021/07/21 00:44:34;;;;;;;19.98;5.80;;;15.20;99.90;;;;;;5091509;28;20769;-64
2021/07/21 00:47:00;;;;;;;23.05;6.00;;;15.20;99.90;;;;;;5092835;28;20882;-64
2021/07/21 00:49:26;;;;;;;26.88;5.88;;;15.10;99.90;;;;;;5091501;28;20388;-64
2021/07/21 00:51:53;;;;;;;20.05;5.43;;;15.10;99.90;;;;;;5092860;28;20396;-64
2021/07/21 00:54:22;;;;;;;24.10;5.63;;;15.10;99.90;;;;;;5091296;28;20721;-64
2021/07/21 00:56:49;;;;;;;24.33;5.63;;;15.10;99.90;;;;;;5091396;28;20519;-64
2021/07/21 00:59:15;;;;;;;21.80;5.75;;;15.10;99.90;;;;;;5085696;28;20372;-64
2021/07/21 01:01:41;;;;;;;20.63;5.90;;;15.10;99.90;;;;;;5092505;28;20385;-64
2021/07/21 01:04:07;;;;;;;25.90;6.07;;;15.00;99.90;;;;;;5072278;28;20881;-64
2021/07/21 01:06:33;;;;;;;25.50;5.90;;;15.00;99.90;;;;;;5092380;28;20623;-64
2021/07/21 01:08:59;;;;;;;21.23;6.07;;;15.00;99.90;;;;;;5092391;28;20454;-64
2021/07/21 01:11:40;;;;;;;19.02;5.70;;;15.00;99.90;;;;;;5091120;28;20376;-64
2021/07/21 01:14:12;;;;;;;22.30;5.82;;;14.90;99.90;;;;;;5091210;28;20389;-64
2021/07/21 01:16:41;;;;;;;16.53;5.50;;;14.90;99.90;;;;;;5087030;28;20407;-64
2021/07/21 01:19:13;;;;;;;20.10;5.95;;;14.90;99.90;;;;;;5092043;28;20360;-63
2021/07/21 01:22:17;;;;;;;18.63;5.90;;;14.90;99.90;;;;;;5092014;28;20368;-63
2021/07/21 01:25:04;;;;;;;21.45;5.53;;;14.90;99.90;;;;;;5091062;28;20845;-63
2021/07/21 01:27:52;;;;;;;18.33;5.72;;;14.90;99.90;;;;;;5091831;28;20376;-64
2021/07/21 01:30:20;;;;;;;17.83;5.55;;;14.90;99.90;;;;;;5091848;28;20364;-64
2021/07/21 01:32:49;;;;;;;21.98;6.25;;;14.90;99.90;;;;;;5090692;28;20853;-64
2021/07/21 01:35:23;;;;;;;23.23;5.72;;;14.90;99.90;;;;;;5091641;28;20855;-64
2021/07/21 01:38:00;;;;;;;21.85;5.80;;;14.80;99.90;;;;;;5090193;28;20412;-64
2021/07/21 01:40:27;;;;;;;22.70;6.05;;;14.80;99.90;;;;;;5073660;28;20725;-64
2021/07/21 01:42:56;;;;;;;21.38;5.68;;;14.80;99.90;;;;;;5091901;28;20369;-64
2021/07/21 01:45:24;;;;;;;21.02;5.90;;;14.80;99.90;;;;;;5087989;28;20725;-64
2021/07/21 01:47:50;;;;;;;20.05;5.60;;;14.70;99.90;;;;;;5073968;28;20410;-64
2021/07/21 01:50:16;;;;;;;20.65;6.18;;;14.70;99.90;;;;;;5072570;28;20380;-64
2021/07/21 01:52:47;;;;;;;22.23;5.80;;;14.70;99.90;;;;;;5090519;28;20373;-64
2021/07/21 01:55:14;;;;;;;22.17;6.20;;;14.60;99.90;;;;;;5074210;28;20464;-64
2021/07/21 01:57:40;;;;;;;21.08;5.72;;;14.60;99.90;;;;;;5091425;28;20761;-64
2021/07/21 02:00:09;;;;;;;22.20;6.57;;;14.60;99.90;;;;;;5090246;28;20369;-64
2021/07/21 02:02:35;;;;;;;22.40;6.05;;;14.60;99.90;;;;;;5091485;28;20377;-64
2021/07/21 02:05:01;;;;;;;20.83;6.43;;;14.50;99.90;;;;;;5091517;28;20871;-63
2021/07/21 02:07:27;;;;;;;21.83;5.97;;;14.50;99.90;;;;;;5090189;28;20388;-64
2021/07/21 02:09:54;;;;;;;19.10;5.93;;;14.50;99.90;;;;;;5090388;28;20373;-64
2021/07/21 02:12:20;;;;;;;20.23;5.65;;;14.50;99.90;;;;;;5073472;28;20377;-64
2021/07/21 02:14:46;;;;;;;21.45;5.82;;;14.40;99.90;;;;;;5091465;28;20369;-65
2021/07/21 02:17:12;;;;;;;21.20;5.70;;;14.40;99.90;;;;;;5069786;28;20896;-64
2021/07/21 02:19:38;;;;;;;25.00;6.38;;;14.40;99.90;;;;;;5090139;28;20361;-64
2021/07/21 02:22:04;;;;;;;24.52;6.50;;;14.40;99.90;;;;;;5091330;28;20392;-62
2021/07/21 02:24:30;;;;;;;22.42;6.00;;;14.40;99.90;;;;;;5073388;28;20372;-63
2021/07/21 02:26:57;;;;;;;21.65;6.20;;;14.40;99.90;;;;;;5088002;28;20372;-64
2021/07/21 02:29:23;;;;;;;16.77;5.78;;;14.40;99.90;;;;;;5089977;28;20369;-63
2021/07/21 02:32:01;;;;;;;18.95;5.88;;;14.40;99.90;;;;;;5090788;28;20379;-64
2021/07/21 02:34:28;;;;;;;20.55;6.20;;;14.40;99.90;;;;;;5088212;28;20376;-64
2021/07/21 02:36:54;;;;;;;21.80;6.20;;;14.40;99.90;;;;;;5091155;28;20403;-64
2021/07/21 02:39:20;;;;;;;17.70;6.05;;;14.30;99.90;;;;;;5090127;28;20841;-64
2021/07/21 02:41:46;;;;;;;17.52;5.35;;;14.30;99.90;;;;;;5072512;28;20411;-64
2021/07/21 02:44:13;;;;;;;17.33;5.70;;;14.30;99.90;;;;;;5091122;28;20861;-64
2021/07/21 02:46:39;;;;;;;22.88;6.60;;;14.30;99.90;;;;;;5091181;28;20730;-64
2021/07/21 02:49:05;;;;;;;19.48;5.45;;;14.30;99.90;;;;;;5091238;28;20376;-64
2021/07/21 02:51:39;;;;;;;14.18;5.40;;;14.20;99.90;;;;;;5089925;28;20357;-64
2021/07/21 02:54:14;;;;;;;16.23;5.40;;;14.20;99.90;;;;;;5089965;28;20865;-64
2021/07/21 02:56:44;;;;;;;21.02;6.40;;;14.20;99.90;;;;;;5089972;28;20380;-64
2021/07/21 02:59:14;;;;;;;26.30;6.63;;;14.20;99.90;;;;;;5072807;28;20393;-64
2021/07/21 03:01:45;;;;;;;20.17;6.20;;;14.20;99.90;;;;;;5092712;28;20379;-64
2021/07/21 03:04:11;;;;;;;20.90;6.15;;;14.20;99.90;;;;;;5059305;28;20381;-64
2021/07/21 03:06:37;;;;;;;16.58;6.35;;;14.20;99.90;;;;;;5093824;28;20400;-64
2021/07/21 03:09:03;;;;;;;20.50;6.40;;;14.20;99.90;;;;;;5073766;28;20899;-64
2021/07/21 03:11:29;;;;;;;21.75;6.45;;;14.20;99.90;;;;;;5093566;28;20387;-64
2021/07/21 03:13:59;;;;;;;21.38;6.07;;;14.20;99.90;;;;;;5076510;28;20717;-64
2021/07/21 03:16:27;;;;;;;22.10;6.35;;;14.20;99.90;;;;;;5076536;28;20376;-64
2021/07/21 03:18:56;;;;;;;22.53;6.20;;;14.20;99.90;;;;;;5093213;28;20434;-64
2021/07/21 03:21:22;;;;;;;20.25;6.60;;;14.20;99.90;;;;;;5076424;28;20726;-64
2021/07/21 03:23:48;;;;;;;20.40;5.77;;;14.20;99.90;;;;;;5076332;28;20850;-64
2021/07/21 03:26:14;;;;;;;20.45;5.80;;;14.20;99.90;;;;;;5093107;28;20376;-64
2021/07/21 03:28:40;;;;;;;20.95;6.00;;;14.20;99.90;;;;;;5076133;28;20375;-64
2021/07/21 03:31:07;;;;;;;16.30;6.40;;;14.30;99.90;;;;;;5076127;28;20364;-64
2021/07/21 03:33:33;;;;;;;20.03;5.83;;;14.30;99.90;;;;;;5076275;28;20376;-64
2021/07/21 03:36:03;;;;;;;20.35;5.72;;;14.30;99.90;;;;;;5076208;28;20369;-64
2021/07/21 03:38:29;;;;;;;18.88;6.05;;;14.30;99.90;;;;;;5076130;28;20404;-64
2021/07/21 03:40:56;;;;;;;20.83;5.45;;;14.40;99.90;;;;;;5092434;28;20737;-64
2021/07/21 03:43:22;;;;;;;17.92;5.65;;;14.40;99.90;;;;;;5094087;28;20385;-64
2021/07/21 03:45:49;;;;;;;17.50;5.60;;;14.40;99.90;;;;;;5075987;28;20725;-64
2021/07/21 03:48:15;;;;;;;16.55;5.57;;;14.50;99.90;;;;;;5093988;28;20381;-64
2021/07/21 03:50:41;;;;;;;20.27;5.22;;;14.50;99.90;;;;;;5093616;28;20368;-64
2021/07/21 03:53:08;;;;;;;14.35;5.28;;;14.50;99.90;;;;;;5092290;28;20784;-64
2021/07/21 03:55:35;;;;;;;15.40;5.40;;;14.60;99.90;;;;;;5075327;28;20372;-64
2021/07/21 03:58:01;;;;;;;17.15;5.32;;;14.60;99.90;;;;;;5075113;28;20397;-64
2021/07/21 04:00:28;;;;;;;16.73;5.40;;;14.60;99.90;;;;;;5092304;28;20805;-64
2021/07/21 04:02:55;;;;;;;19.65;6.13;;;14.60;99.90;;;;;;5081238;28;20448;-64
2021/07/21 04:05:23;;;;;;;16.23;5.55;;;14.70;99.90;;;;;;5074675;28;20375;-64
2021/07/21 04:07:49;;;;;;;16.75;5.65;;;14.80;99.90;;;;;;5074623;28;20498;-64
2021/07/21 04:10:15;;;;;;;17.25;5.10;;;14.90;99.90;;;;;;5076429;28;20382;-64
2021/07/21 04:12:45;;;;;;;16.35;5.25;;;14.90;99.90;;;;;;5071412;28;20380;-64
2021/07/21 04:15:11;;;;;;;17.75;5.00;;;15.00;99.90;;;;;;5077028;28;20377;-64
2021/07/21 04:17:37;;;;;;;16.85;5.10;;;15.10;99.90;;;;;;5073340;28;20384;-64
2021/07/21 04:20:05;;;;;;;16.92;4.95;;;15.10;99.90;;;;;;5072218;28;20393;-64
2021/07/21 04:22:31;;;;;;;16.50;4.80;;;15.20;99.90;;;;;;5073430;28;20374;-64
2021/07/21 04:24:58;;;;;;;13.55;4.78;;;15.20;99.90;;;;;;5072541;28;20469;-64
2021/07/21 04:27:24;;;;;;;17.37;4.50;;;15.30;99.90;;;;;;5076553;28;20368;-64
2021/07/21 04:29:50;;;;;;;16.00;4.72;;;15.30;99.90;;;;;;5075570;28;20379;-64
2021/07/21 04:32:16;;;;;;;12.98;4.50;;;15.40;99.90;;;;;;5075404;28;20370;-64
2021/07/21 04:34:43;;;;;;;15.57;4.57;;;15.50;99.90;;;;;;5076679;28;20388;-64
2021/07/21 04:37:10;;;;;;;16.17;4.70;;;15.50;99.90;;;;;;5058850;28;20416;-64
2021/07/21 04:39:36;;;;;;;14.75;4.35;;;15.60;99.90;;;;;;5075742;28;20369;-63
2021/07/21 04:42:03;;;;;;;12.55;4.35;;;15.60;99.90;;;;;;5076119;28;20390;-64
2021/07/21 04:44:29;;;;;;;13.35;4.25;;;15.70;99.90;;;;;;5076457;28;20412;-64
2021/07/21 04:46:58;;;;;;;11.75;4.20;;;15.70;99.90;;;;;;5070637;28;20386;-64
2021/07/21 04:49:24;;;;;;;15.65;4.40;;;15.80;99.90;;;;;;5072024;28;20382;-64
2021/07/21 04:51:50;;;;;;;16.40;4.80;;;15.90;99.90;;;;;;5057356;28;20386;-64
2021/07/21 04:54:16;;;;;;;14.75;4.45;;;16.00;99.90;;;;;;5070182;28;20366;-64
2021/07/21 04:56:42;;;;;;;12.63;4.27;;;16.00;99.90;;;;;;5074894;28;20933;-63
2021/07/21 04:59:08;;;;;;;13.48;4.10;;;16.10;99.90;;;;;;5075798;28;20409;-63
2021/07/21 05:01:34;;;;;;;13.68;4.60;;;16.20;99.90;;;;;;5073526;28;20374;-64
2021/07/21 05:04:01;;;;;;;14.57;4.40;;;16.30;99.90;;;;;;5075351;28;20878;-63
2021/07/21 05:06:27;;;;;;;13.93;4.15;;;16.30;99.90;;;;;;5078195;28;20382;-63
2021/07/21 05:08:53;;;;;;;17.77;4.82;;;16.50;99.90;;;;;;5087238;28;20445;-63
2021/07/21 05:11:19;;;;;;;16.42;4.53;;;16.50;99.90;;;;;;5078263;28;20382;-64
2021/07/21 05:13:45;;;;;;;17.45;4.20;;;16.60;99.90;;;;;;5085913;28;20390;-64
2021/07/21 05:16:11;;;;;;;13.98;4.30;;;16.70;99.90;;;;;;5072571;28;20389;-63
2021/07/21 05:18:37;;;;;;;15.63;4.40;;;16.80;99.90;;;;;;5088831;28;20400;-63
2021/07/21 05:21:04;;;;;;;13.90;4.63;;;16.90;99.90;;;;;;5080418;28;20735;-63
2021/07/21 05:23:30;;;;;;;14.60;4.60;;;17.00;99.90;;;;;;5082161;28;20416;-63
2021/07/21 05:25:57;;;;;;;15.68;4.30;;;17.10;99.90;;;;;;5075403;28;20391;-63
2021/07/21 05:28:23;;;;;;;16.95;4.55;;;17.20;99.90;;;;;;5080543;28;20384;-63
2021/07/21 05:30:49;;;;;;;14.68;4.55;;;17.30;99.90;;;;;;5079997;28;20382;-59
2021/07/21 05:33:15;;;;;;;15.33;4.30;;;17.30;99.90;;;;;;5076729;28;20388;-62
2021/07/21 05:35:42;;;;;;;;;;;17.40;99.90;;;;;;5080602;28;20370;-60
2021/07/21 05:38:08;;;;;;;;;;;17.40;99.90;;;;;;5083959;28;19920;-64
2021/07/21 05:40:34;;;;;;;;;;;17.40;99.90;;;;;;5083151;28;19920;-61
2021/07/21 05:43:00;;;;;;;;;;;17.40;99.90;;;;;;5081416;28;19907;-60
2021/07/21 05:45:25;;;;;;;;;;;17.40;99.90;;;;;;5080332;28;19920;-60
2021/07/21 05:47:51;;;;;;;;;;;17.50;99.90;;;;;;5080724;28;19916;-60
2021/07/21 05:50:18;;;;;;;;;;;17.50;99.90;;;;;;5077448;28;19931;-61
2021/07/21 05:52:43;;;;;;;;;;;17.60;99.90;;;;;;5083141;28;20345;-61
2021/07/21 05:55:10;;;;;;;;;;;17.70;99.90;;;;;;5084628;28;19916;-61
2021/07/21 05:57:36;;;;;;;;;;;17.80;99.90;;;;;;5080980;28;20374;-62
2021/07/21 06:00:03;;;;;;;;;;;17.70;99.90;;;;;;5079774;28;19908;-61
2021/07/21 06:02:29;;;;;;;;;;;17.70;99.90;;;;;;5079065;28;19905;-61
2021/07/21 06:04:55;;;;;;;;;;;17.70;99.90;;;;;;5081637;28;19908;-61
2021/07/21 06:07:21;;;;;;;;;;;17.80;99.90;;;;;;5083411;28;20234;-61
2021/07/21 06:09:47;;;;;;;;;;;17.80;99.90;;;;;;5082371;28;19909;-61
2021/07/21 06:12:12;;;;;;;;;;;17.80;99.90;;;;;;5081478;28;19944;-62
2021/07/21 06:14:38;;;;;;;;;;;17.80;99.90;;;;;;5082419;28;20361;-60
2021/07/21 06:17:04;;;;;;;;;;;17.90;99.90;;;;;;5083563;28;19908;-61
2021/07/21 06:19:33;;;;;;;;;;;18.00;99.90;;;;;;5081667;28;19916;-62
2021/07/21 06:22:00;;;;;;;;;;;18.10;99.90;;;;;;5086893;28;19908;-61
2021/07/21 06:24:27;;;;;;;;;;;18.20;99.90;;;;;;5073481;28;19920;-61
2021/07/21 06:26:52;;;;;;;;;;;18.30;99.90;;;;;;5072770;28;20452;-62
2021/07/21 06:29:18;;;;;;;;;;;18.40;99.90;;;;;;5071007;28;20310;-62
2021/07/21 06:31:44;;;;;;;;;;;18.50;99.90;;;;;;5072312;28;19912;-62
2021/07/21 06:34:10;;;;;;;;;;;18.50;99.90;;;;;;5073807;28;19909;-61
2021/07/21 06:36:36;;;;;;;;;;;18.60;99.90;;;;;;5075858;28;20285;-62
2021/07/21 06:39:02;;;;;;;;;;;18.60;99.90;;;;;;5075755;28;19975;-62
2021/07/21 06:41:28;;;;;;;;;;;18.70;99.90;;;;;;5076866;28;19925;-62
2021/07/21 06:43:54;;;;;;;;;;;18.70;99.90;;;;;;5077048;28;20388;-62
2021/07/21 06:46:20;;;;;;;12.95;3.65;;;18.80;99.90;;;;;;5076130;28;20384;-62
2021/07/21 06:48:46;;;;;;;13.35;3.90;;;18.90;99.90;;;;;;5075775;28;20370;-62
2021/07/21 06:51:12;;;;;;;10.82;3.47;;;19.10;99.90;;;;;;5074462;28;20386;-62
2021/07/21 06:53:39;;;;;;;12.07;3.33;;;19.20;99.90;;;;;;5075433;28;20377;-62
2021/07/21 06:56:05;;;;;;;14.32;3.65;;;19.40;99.90;;;;;;5074879;28;20429;-61
2021/07/21 06:58:31;;;;;;;11.93;3.75;;;19.60;99.90;;;;;;5074906;28;20402;-62
2021/07/21 07:00:57;;;;;;;11.95;3.58;;;19.70;99.90;;;;;;5074870;28;20375;-62
2021/07/21 07:03:23;;;;;;;12.37;3.90;;;19.90;99.90;;;;;;5074612;28;20374;-61
2021/07/21 07:05:49;;;;;;;;;;;19.90;99.90;;;;;;5076695;28;20232;-61
2021/07/21 07:08:15;;;;;;;;;;;19.80;99.90;;;;;;5076743;28;20277;-61
2021/07/21 07:10:41;;;;;;;;;;;19.70;99.90;;;;;;5076065;28;19915;-61
2021/07/21 07:13:07;;;;;;;;;;;19.50;99.90;;;;;;5076113;28;19970;-60
2021/07/21 07:15:32;;;;;;;;;;;19.50;99.90;;;;;;5076981;28;19916;-61
2021/07/21 07:17:59;;;;;;;;;;;19.60;99.90;;;;;;5076377;28;20434;-61
2021/07/21 07:20:25;;;;;;;;;;;19.70;99.90;;;;;;5096364;28;19954;-61
2021/07/21 07:22:50;;;;;;;;;;;19.90;99.90;;;;;;5096263;28;20356;-61
2021/07/21 07:25:16;;;;;;;;;;;20.10;98.50;;;;;;5096137;28;19908;-61
2021/07/21 07:27:42;;;;;;;;;;;20.00;98.40;;;;;;5096211;28;19911;-61
2021/07/21 07:30:10;;;;;;;;;;;20.10;97.70;;;;;;5096165;28;19908;-61
2021/07/21 07:32:37;;;;;;;;;;;20.20;98.20;;;;;;5095575;28;19908;-62
2021/07/21 07:35:03;;;;;;;;;;;20.40;97.70;;;;;;5095972;28;19908;-61
2021/07/21 07:37:29;;;;;;;;;;;20.40;96.60;;;;;;5096284;28;19912;-60
2021/07/21 07:39:55;;;;;;;;;;;20.40;96.40;;;;;;5095893;28;20323;-61
2021/07/21 07:42:21;;;;;;;;;;;20.50;95.80;;;;;;5096280;28;19919;-62
2021/07/21 07:44:47;;;;;;;;;;;20.70;96.00;;;;;;5095956;28;19961;-61
2021/07/21 07:47:13;;;;;;;;;;;20.70;94.60;;;;;;5095200;28;19908;-61
2021/07/21 07:49:39;;;;;;;;;;;20.90;93.80;;;;;;5095492;28;19911;-61
2021/07/21 07:52:05;;;;;;;;;;;20.80;93.60;;;;;;5095651;28;19904;-61
2021/07/21 07:54:31;;;;;;;;;;;20.90;93.60;;;;;;5095924;28;19914;-61
2021/07/21 07:56:57;;;;;;;;;;;21.00;93.50;;;;;;5094712;28;20349;-61
2021/07/21 07:59:23;;;;;;;;;;;21.20;92.70;;;;;;5093495;28;19916;-60
2021/07/21 08:01:49;;;;;;;;;;;21.40;91.60;;;;;;5093966;28;19934;-61
2021/07/21 08:04:15;;;;;;;;;;;21.60;92.30;;;;;;5093477;28;19907;-61
2021/07/21 08:06:41;;;;;;;8.60;2.92;;;21.70;91.80;;;;;;5091967;28;20389;-61
2021/07/21 08:09:16;;;;;;;8.30;3.05;;;21.80;90.80;;;;;;5091981;28;20880;-61
2021/07/21 08:11:48;;;;;;;10.95;3.35;;;21.70;90.60;;;;;;5092401;28;20384;-61
2021/07/21 08:14:18;;;;;;;13.00;3.50;;;21.40;90.20;;;;;;5093618;28;20384;-61
2021/07/21 08:16:45;;;;;;;7.75;3.20;;;21.40;91.10;;;;;;5093884;28;20392;-62
2021/07/21 08:19:11;;;;;;;8.23;3.08;;;21.60;90.90;;;;;;5077872;28;20417;-60
2021/07/21 08:21:38;;;;;;;8.57;2.87;;;21.90;89.30;;;;;;5073684;28;20378;-61
2021/07/21 08:24:04;;;;;;;9.15;2.90;;;22.20;88.50;;;;;;5074019;28;20393;-61
2021/07/21 08:26:30;;;;;;;11.43;3.05;;;22.30;87.20;;;;;;5073437;28;20370;-62
2021/07/21 08:28:56;;;;;;;12.30;3.15;;;22.60;87.10;;;;;;5073483;28;20374;-61
2021/07/21 08:31:22;;;;;;;12.02;3.30;;;22.30;86.20;;;;;;5073393;28;20750;-62
2021/07/21 08:33:48;;;;;;;10.02;3.10;;;22.30;87.70;;;;;;5073153;28;20383;-62
2021/07/21 08:36:15;;;;;;;10.98;2.97;;;22.60;86.40;;;;;;5073747;28;20405;-63
2021/07/21 08:38:41;;;;;;;9.95;3.45;;;22.70;85.20;;;;;;5073295;28;20414;-62
2021/07/21 08:41:07;;;;;;;8.70;2.78;;;23.10;83.80;;;;;;5072973;28;20386;-62
2021/07/21 08:43:35;;;;;;;9.15;2.95;;;23.30;81.90;;;;;;5073000;28;20381;-62
2021/07/21 08:46:01;;;;;;;22.48;4.43;;;23.50;80.70;;;;;;5071858;28;20705;-62
2021/07/21 08:48:27;;;;;;;12.73;3.28;;;23.80;80.40;;;;;;5073850;28;20388;-62
2021/07/21 08:50:53;;;;;;;9.60;3.30;;;23.50;79.70;;;;;;5071339;28;20882;-62
2021/07/21 08:53:19;;;;;;;9.45;3.33;;;23.70;80.20;;;;;;5055129;28;20831;-61
2021/07/21 08:55:47;;;;;;;;;;;24.00;78.70;;;;;;5074530;28;20382;-61
2021/07/21 08:58:13;;;;;;;;;;;24.30;75.90;;;;;;5074755;28;19908;-61
2021/07/21 09:00:39;;;;;;;;;;;24.60;75.30;;;;;;5073091;28;19905;-61
2021/07/21 09:03:04;;;;;;;;;;;25.10;74.20;;;;;;5074824;28;19908;-61
2021/07/21 09:05:30;;;;;;;;;;;25.00;73.30;;;;;;5075003;28;19908;-61
2021/07/21 09:07:56;;;;;;;;;;;25.30;72.00;;;;;;5074634;28;19920;-61
2021/07/21 09:10:22;;;;;;;8.43;3.00;;;25.50;70.90;;;;;;5073573;28;20446;-60
2021/07/21 09:12:50;;;;;;;10.02;3.20;;;26.40;70.10;;;;;;5071733;28;20882;-62
2021/07/21 09:15:18;;;;;;;8.63;3.03;;;26.40;67.40;;;;;;5072835;28;20882;-62
2021/07/21 09:18:01;;;;;;;13.47;3.03;;;26.40;66.50;;;;;;5072891;28;20393;-62
2021/07/21 09:20:27;;;;;;;10.40;3.30;;;26.60;65.70;;;;;;5072661;28;20877;-62
2021/07/21 09:22:54;;;;;;;11.35;3.50;;;26.40;66.80;;;;;;5072376;28;20393;-62
2021/07/21 09:25:25;;;;;;;9.18;3.10;;;26.50;66.70;;;;;;5072850;28;20393;-62
2021/07/21 09:27:53;;;;;;;12.17;3.70;;;26.80;64.90;;;;;;5072186;28;20374;-62
2021/07/21 09:30:26;;;;;;;11.00;3.70;;;26.30;64.70;;;;;;5072224;28;20382;-61
2021/07/21 09:33:07;;;;;;;11.55;3.72;;;25.60;67.10;;;;;;5072063;28;20731;-61
2021/07/21 09:35:37;;;;;;;;;;;24.00;70.80;;;;;;5072380;28;20387;-60
2021/07/21 09:38:08;;;;;;;12.02;3.95;;;22.80;74.50;;;;;;5072661;28;20477;-61
2021/07/21 09:40:35;;;;;;;12.75;4.43;;;22.30;77.00;;;;;;5071794;28;20382;-60
2021/07/21 09:43:01;;;;;;;20.92;4.57;;;22.30;78.90;;;;;;5072482;28;20375;-61
2021/07/21 09:45:27;;;;;;;15.70;4.35;;;22.70;77.50;;;;;;5072362;28;20401;-59
2021/07/21 09:47:55;;;;;;;11.55;4.50;;;22.40;78.40;;;;;;5072185;28;20379;-59
2021/07/21 09:50:24;;;;;;;12.33;4.40;;;21.90;79.70;;;;;;5072055;28;20728;-60
2021/07/21 09:52:55;;;;;;;12.68;4.57;;;22.10;80.50;;;;;;5072387;28;20381;-60
2021/07/21 09:55:21;;;;;;;12.87;4.83;;;21.90;79.30;;;;;;5072462;28;20712;-62
2021/07/21 09:58:07;;;;;;;12.80;4.50;;;21.80;80.80;;;;;;5072642;28;20374;-61
2021/07/21 10:00:37;;;;;;;12.73;4.60;;;22.10;81.40;;;;;;5072075;28;20389;-61
2021/07/21 10:03:09;;;;;;;12.20;4.70;;;22.40;79.60;;;;;;5070722;28;20397;-62
2021/07/21 10:05:56;;;;;;;11.30;4.20;;;23.00;78.80;;;;;;5071959;28;20381;-62
2021/07/21 10:08:44;;;;;;;11.63;4.68;;;23.00;77.90;;;;;;5072824;28;20391;-62
2021/07/21 10:11:39;;;;;;;10.17;4.43;;;23.20;77.10;;;;;;5071435;28;20378;-62
2021/07/21 10:14:13;;;;;;;12.30;4.00;;;23.30;76.20;;;;;;5071961;28;20386;-61
2021/07/21 10:16:43;;;;;;;12.98;4.60;;;23.40;76.00;;;;;;5070468;28;20370;-61
2021/07/21 10:19:30;;;;;;;16.80;4.60;;;23.60;75.50;;;;;;5071663;28;20409;-62
2021/07/21 10:21:57;;;;;;;10.97;4.00;;;23.30;75.50;;;;;;5070799;28;20375;-61
2021/07/21 10:24:25;;;;;;;10.05;4.38;;;23.40;76.30;;;;;;5072206;28;20696;-62
2021/07/21 10:26:52;;;;;;;11.38;4.28;;;23.70;75.10;;;;;;5071973;28;20409;-63
2021/07/21 10:29:19;;;;;;;11.23;4.30;;;23.50;74.20;;;;;;5072274;28;20850;-62
2021/07/21 10:31:45;;;;;;;10.45;4.20;;;23.30;75.30;;;;;;5053649;28;20393;-62
2021/07/21 10:34:11;;;;;;;14.57;4.53;;;23.20;76.10;;;;;;5074770;28;20395;-62
2021/07/21 10:36:38;;;;;;;10.02;4.30;;;23.30;75.00;;;;;;5091841;28;20404;-62
2021/07/21 10:39:08;;;;;;;12.18;4.53;;;23.20;74.80;;;;;;5092047;28;20400;-62
2021/07/21 10:41:34;;;;;;;10.80;4.50;;;23.10;74.90;;;;;;5090661;28;20857;-62
2021/07/21 10:44:00;;;;;;;10.13;4.25;;;23.60;75.20;;;;;;5091713;28;20361;-63
2021/07/21 10:46:40;;;;;;;10.60;4.22;;;24.00;73.30;;;;;;5073198;28;20872;-63
2021/07/21 10:49:36;;;;;;;12.13;4.20;;;24.20;72.20;;;;;;5091737;28;20385;-61
2021/07/21 10:54:56;;;;;;;;;;;24.20;70.30;;;;;;5099536;28;20397;-61
2021/07/21 11:00:18;;;;;;;;;;;26.10;66.20;;;;;;5099641;28;20262;-62
2021/07/21 11:02:44;;;;;;;;;;;26.40;64.50;;;;;;5092747;28;20266;-62
2021/07/21 11:05:30;;;;;;;;;;;26.90;61.50;;;;;;5092378;28;19908;-62
2021/07/21 11:07:56;;;;;;;;;;;27.10;61.60;;;;;;5092346;28;20904;-62
2021/07/21 11:10:49;;;;;;;;;;;27.00;61.60;;;;;;5092275;28;20249;-62
2021/07/21 11:13:27;;;;;;;;;;;26.60;61.40;;;;;;5090523;28;19904;-63
2021/07/21 11:15:53;;;;;;;;;;;26.40;61.90;;;;;;5092251;28;20379;-63
2021/07/21 11:18:24;;;;;;;;;;;25.30;62.70;;;;;;5092492;28;19908;-62
2021/07/21 11:21:20;;;;;;;;;;;24.80;65.70;;;;;;5092558;28;19908;-62
2021/07/21 11:23:52;;;;;;;;;;;25.10;65.40;;;;;;5087160;28;20272;-63
2021/07/21 11:26:27;;;;;;;;;;;25.50;63.80;;;;;;5096624;28;20380;-62
2021/07/21 11:28:53;;;;;;;;;;;25.90;64.00;;;;;;5096310;28;19911;-61
2021/07/21 11:31:18;;;;;;;;;;;25.40;64.60;;;;;;5094891;28;19911;-61
2021/07/21 11:33:49;;;;;;;;;;;25.70;64.60;;;;;;5067987;28;19911;-60
2021/07/21 11:36:39;;;;;;;;;;;25.80;65.30;;;;;;5075320;28;20349;-60
2021/07/21 11:39:05;;;;;;;;;;;26.00;63.20;;;;;;5074026;28;19919;-60
2021/07/21 11:41:54;;;;;;;;;;;25.80;64.30;;;;;;5073387;28;19920;-62
2021/07/21 11:44:30;;;;;;;;;;;25.50;62.80;;;;;;5073418;28;19904;-61
2021/07/21 11:46:56;;;;;;;;;;;24.20;66.60;;;;;;5073466;28;19916;-61
2021/07/21 11:49:23;;;;;;;;;;;23.50;69.50;;;;;;5073338;28;19908;-61
2021/07/21 11:51:49;;;;;;;;;;;23.80;70.60;;;;;;5073418;28;19904;-62
2021/07/21 11:54:30;;;;;;;;;;;23.80;69.40;;;;;;5073366;28;20361;-62
2021/07/21 11:56:57;;;;;;;;;;;24.10;68.90;;;;;;5075349;28;19904;-62
2021/07/21 11:59:27;;;;;;;;;;;24.50;67.60;;;;;;5073502;28;20544;-62
2021/07/21 12:02:11;;;;;;;11.23;4.25;;;23.70;68.00;;;;;;5073150;28;20400;-61
2021/07/21 12:04:38;;;;;;;;;;;23.30;69.30;;;;;;5089242;28;20381;-61
2021/07/21 12:07:04;;;;;;;;;;;24.00;68.90;;;;;;5088732;28;19920;-61
2021/07/21 12:09:31;;;;;;;;;;;24.30;67.60;;;;;;5084468;28;19908;-61
2021/07/21 12:11:57;;;;;;;8.98;4.05;;;24.50;66.70;;;;;;5092442;28;20385;-61
2021/07/21 12:14:24;;;;;;;11.55;4.10;;;24.40;67.60;;;;;;5093564;28;20357;-61
2021/07/21 12:16:51;;;;;;;11.43;3.90;;;24.20;67.00;;;;;;5092807;28;20379;-61
2021/07/21 12:19:25;;;;;;;8.27;4.20;;;24.00;66.60;;;;;;5108601;28;20407;-61
2021/07/21 12:22:02;;;;;;;10.30;4.00;;;23.80;68.70;;;;;;5112827;28;20831;-61
2021/07/21 12:24:35;;;;;;;8.00;3.88;;;23.60;68.30;;;;;;5090969;28;20395;-59
2021/07/21 12:27:02;;;;;;;8.32;3.85;;;23.50;68.70;;;;;;5085430;28;20377;-60
2021/07/21 12:29:31;;;;;;;6.97;3.70;;;23.70;67.80;;;;;;5084496;28;20385;-60
2021/07/21 12:32:20;;;;;;;9.77;3.90;;;23.90;68.00;;;;;;5082115;28;20393;-60
2021/07/21 12:34:49;;;;;;;9.20;4.13;;;23.80;67.30;;;;;;5087225;28;20376;-60
2021/07/21 12:37:18;;;;;;;10.05;4.20;;;23.50;68.30;;;;;;5091213;28;20392;-61
2021/07/21 12:39:45;;;;;;;8.10;4.03;;;23.20;68.10;;;;;;5073596;28;20393;-60
2021/07/21 12:42:13;;;;;;;7.88;3.85;;;23.40;69.70;;;;;;5091020;28;20392;-61
2021/07/21 12:44:44;;;;;;;8.02;3.88;;;23.50;69.00;;;;;;5089907;28;20402;-61
2021/07/21 12:47:11;;;;;;;8.32;4.00;;;23.60;69.20;;;;;;5091915;28;20387;-61
2021/07/21 12:49:40;;;;;;;9.70;3.90;;;23.30;67.70;;;;;;5091380;28;20396;-61
2021/07/21 12:52:09;;;;;;;9.55;3.95;;;23.20;68.50;;;;;;5091878;28;20368;-61
2021/07/21 12:54:36;;;;;;;7.28;3.67;;;23.60;68.90;;;;;;5074872;28;20845;-61
2021/07/21 12:57:02;;;;;;;8.33;3.70;;;23.80;67.70;;;;;;5091391;28;20388;-61
2021/07/21 12:59:38;;;;;;;10.07;3.50;;;23.80;67.00;;;;;;5092640;28;20434;-61
2021/07/21 13:02:10;;;;;;;8.52;3.80;;;23.90;66.90;;;;;;5092202;28;20388;-61
2021/07/21 13:04:37;;;;;;;10.35;3.97;;;23.90;64.20;;;;;;5090443;28;20455;-61
2021/07/21 13:07:05;;;;;;;8.50;3.45;;;23.40;64.80;;;;;;5092376;28;20380;-61
2021/07/21 13:09:31;;;;;;;8.02;3.70;;;23.10;67.10;;;;;;5090715;28;20849;-61
2021/07/21 13:11:58;;;;;;;9.60;3.55;;;22.90;66.70;;;;;;5092677;28;20379;-61
2021/07/21 13:14:24;;;;;;;7.35;3.40;;;22.70;66.50;;;;;;5092822;28;20869;-60
2021/07/21 13:16:50;;;;;;;7.10;3.33;;;22.60;65.60;;;;;;5092525;28;20377;-60
2021/07/21 13:19:16;;;;;;;11.07;3.30;;;22.70;65.80;;;;;;5092104;28;20877;-60